Minneapolis, MN (55416)

9:35 PM CDT on July 06, 2015 (GMT -0500)
Sunset Gables | | Change Station
CLOSE
Current Station
Personal Weather Station
Location: Minneapolis, MN
Elevation: 892 ft
Nearby Weather Stations

Elev 892 ft 44.95 °N, 93.33 °W | Updated 9 seconds ago

Partly Cloudy
Partly Cloudy
63.4 °F
Feels Like 63.4 °F
N
5.0
Wind Variable Wind from NW
Gusts 16.0 mph

Today
High -- | Low -- °F
--% Chance of Precip.
Yesterday
High -- | Low -- °F
Precip. -- in
5:33 AM 9:02 PM
Waning Gibbous, 70% visible
Pressure 29.99 in
Visibility 10.0 miles
Clouds Scattered Clouds 4200 ft
Mostly Cloudy 6000 ft
Dew Point 52 °F
Humidity 66%
Rainfall 2.75 in
Snow Depth Not available.
UV 0 out of 12
Pollen .60 out of 12
Air Quality Not available.
Flu Activity Not available.
METAR KMSP 070153Z 34011G20KT 10SM SCT042 BKN060 19/11 A3000 RMK AO2 SLP156 T01940106

More Conditions Fewer Conditions

Pressure 29.99 in
Visibility 10.0 miles
Clouds Scattered Clouds 4200 ft
Mostly Cloudy 6000 ft
Dew Point 52 °F
Humidity 66%
Rainfall 2.75 in
Snow Depth Not available.
UV 0 out of 12
Pollen .60 out of 12
Air Quality Not available.
Flu Activity Not available.
METAR KMSP 070153Z 34011G20KT 10SM SCT042 BKN060 19/11 A3000 RMK AO2 SLP156 T01940106

More Conditions Fewer Conditions

10-Day Weather Forecast

×

Almanac

Astronomy

Jul. 06, 2015 Rise Set
Actual Time
Civil Twilight
Nautical Twilight
Astronomical Twilight
Moon
Length of Visible Light
Length of Day
Tomorrow will be .
, % of the Moon is Illuminated

Today's Extremes

State Highs State Lows

Community

WunderPhotos

Upload Photos

1,835,692 photos uploaded!

WunderBlogs® & News

Nearby

Air Quality

  Air Quality AQ Index Pollutant
Not available.

Snow Depth

Station Depth Elevation

Earthquake Activity

City Distance Mag. Time & Date
Minimum magnitude displayed is 2.5.

Coastal Water Temperatures

Place Temperature

Stations

Nearby Weather Stations

Station Location Temp. Windchill Dew Point Humidity Wind Precip. Elev Updated Type